createdAt,value
2023-03-11T00:03:28.045Z,1
2023-03-11T00:13:27.914Z,1
2023-03-11T00:23:27.938Z,1
2023-03-11T00:33:27.817Z,1
2023-03-11T00:43:27.773Z,1
2023-03-11T00:53:27.680Z,1
2023-03-11T01:03:27.669Z,1
2023-03-11T01:13:27.591Z,1
2023-03-11T01:23:27.442Z,1
2023-03-11T01:33:27.440Z,1
2023-03-11T01:43:27.372Z,1
2023-03-11T01:53:27.346Z,1
2023-03-11T02:03:27.232Z,1
2023-03-11T02:13:27.115Z,1
2023-03-11T02:23:27.091Z,1
2023-03-11T02:33:26.934Z,1
2023-03-11T02:43:26.863Z,1
2023-03-11T02:53:26.782Z,1
2023-03-11T03:03:26.710Z,1
2023-03-11T03:13:26.618Z,1
2023-03-11T03:23:26.644Z,1
2023-03-11T03:33:26.517Z,1
2023-03-11T03:43:26.405Z,1
2023-03-11T03:53:26.395Z,1
2023-03-11T04:03:26.437Z,1
2023-03-11T04:13:26.189Z,1
2023-03-11T04:23:26.175Z,1
2023-03-11T04:33:26.058Z,1
2023-03-11T04:43:25.951Z,5
2023-03-11T04:53:25.905Z,11
2023-03-11T05:03:25.955Z,9
2023-03-11T05:13:25.844Z,18
2023-03-11T05:23:25.716Z,22
2023-03-11T05:33:25.742Z,23
2023-03-11T05:43:25.611Z,19
2023-03-11T05:53:25.525Z,25
2023-03-11T06:03:25.506Z,28
2023-03-11T06:13:25.292Z,20
2023-03-11T06:23:25.281Z,24
2023-03-11T06:33:25.202Z,27
2023-03-11T06:43:25.460Z,35
2023-03-11T06:53:25.142Z,37
2023-03-11T07:03:24.922Z,45
2023-03-11T07:13:24.906Z,52
2023-03-11T07:23:24.819Z,56
2023-03-11T07:33:24.750Z,56
2023-03-11T07:43:25.845Z,29
2023-03-11T07:53:24.821Z,31
2023-03-11T08:03:24.544Z,46
2023-03-11T08:13:24.461Z,57
2023-03-11T08:23:24.668Z,34
2023-03-11T08:33:24.404Z,32
2023-03-11T08:43:25.921Z,18
2023-03-11T08:53:24.128Z,20
2023-03-11T09:03:24.062Z,28
2023-03-11T09:13:24.030Z,35
2023-03-11T09:23:23.921Z,36
2023-03-11T09:33:24.012Z,31
2023-03-11T09:43:23.744Z,27
2023-03-11T09:53:23.781Z,30
2023-03-11T10:03:23.789Z,44
2023-03-11T10:13:23.595Z,28
2023-03-11T10:23:23.564Z,37
2023-03-11T10:33:23.585Z,13
2023-03-11T10:43:23.374Z,38
2023-03-11T10:53:23.212Z,30
2023-03-11T11:03:23.181Z,18
2023-03-11T11:13:23.474Z,13
2023-03-11T11:23:23.111Z,15
2023-03-11T11:33:23.610Z,24
2023-03-11T11:43:22.867Z,26
2023-03-11T11:53:22.824Z,33
2023-03-11T12:03:22.853Z,26
2023-03-11T12:13:22.748Z,47
2023-03-11T12:23:22.610Z,56
2023-03-11T12:33:22.553Z,69
2023-03-11T12:43:22.495Z,76
2023-03-11T12:53:22.474Z,79
2023-03-11T13:03:22.314Z,90
2023-03-11T13:13:22.334Z,96
2023-03-11T13:23:22.213Z,99
2023-03-11T13:33:22.068Z,99
2023-03-11T13:43:23.796Z,99
2023-03-11T13:53:21.980Z,99
2023-03-11T14:03:21.856Z,99
2023-03-11T14:13:21.819Z,99
2023-03-11T14:23:21.737Z,99
2023-03-11T14:33:21.656Z,99
2023-03-11T14:43:21.726Z,98
2023-03-11T14:53:21.594Z,67
2023-03-11T15:03:21.657Z,77
2023-03-11T15:13:21.373Z,74
2023-03-11T15:23:21.327Z,76
2023-03-11T15:33:21.284Z,70
2023-03-11T15:43:21.189Z,75
2023-03-11T15:53:21.119Z,97
2023-03-11T16:03:21.061Z,91
2023-03-11T16:13:20.966Z,86
2023-03-11T16:23:20.868Z,99
2023-03-11T16:33:20.859Z,93
2023-03-11T16:43:20.790Z,91
2023-03-11T16:53:20.697Z,89
2023-03-11T17:03:21.838Z,87
2023-03-11T17:13:20.622Z,77
2023-03-11T17:23:20.632Z,79
2023-03-11T17:33:20.864Z,76
2023-03-11T17:43:20.308Z,71
2023-03-11T17:53:20.285Z,71
2023-03-11T18:03:20.219Z,56
2023-03-11T18:13:20.103Z,56
2023-03-11T18:23:20.118Z,52
2023-03-11T18:28:39.377Z,48
2023-03-11T18:38:39.000Z,44
2023-03-11T18:48:38.999Z,48
2023-03-11T18:58:39.040Z,45
2023-03-11T19:08:38.869Z,47
2023-03-11T19:18:38.741Z,60
2023-03-11T19:28:38.742Z,59
2023-03-11T19:38:38.666Z,63
2023-03-11T19:48:38.592Z,64
2023-03-11T19:58:38.530Z,68
2023-03-11T20:08:38.413Z,60
2023-03-11T20:18:38.447Z,50
2023-03-11T20:28:38.282Z,52
2023-03-11T20:38:38.167Z,35
2023-03-11T20:48:38.295Z,42
2023-03-11T20:58:38.002Z,36
2023-03-11T21:08:38.044Z,38
2023-03-11T21:18:38.053Z,32
2023-03-11T21:28:37.782Z,21
2023-03-11T21:38:37.851Z,12
2023-03-11T21:48:37.753Z,8
2023-03-11T21:58:37.636Z,8
2023-03-11T22:08:37.548Z,13
2023-03-11T22:18:37.498Z,6
2023-03-11T22:28:37.391Z,10
2023-03-11T22:38:38.471Z,11
2023-03-11T22:48:37.324Z,2
2023-03-11T22:58:37.317Z,1
2023-03-11T23:08:37.197Z,1
2023-03-11T23:18:37.103Z,1
2023-03-11T23:28:37.155Z,1
2023-03-11T23:38:36.962Z,1
2023-03-11T23:48:36.841Z,1
2023-03-11T23:58:36.739Z,1
